createdAt,value
2018-07-14T00:04:10.901Z,49.10
2018-07-14T00:14:15.616Z,49.40
2018-07-14T00:24:20.319Z,49.40
2018-07-14T00:34:25.063Z,49.40
2018-07-14T00:44:29.834Z,49.60
2018-07-14T00:54:34.814Z,49.70
2018-07-14T01:04:40.111Z,49.80
2018-07-14T01:14:45.090Z,49.80
2018-07-14T01:24:49.765Z,49.90
2018-07-14T01:34:54.475Z,50.00
2018-07-14T01:44:59.366Z,50.00
2018-07-14T01:55:04.148Z,50.60
2018-07-14T02:05:09.315Z,50.10
2018-07-14T02:15:13.998Z,50.20
2018-07-14T02:25:18.936Z,50.90
2018-07-14T02:35:23.836Z,50.30
2018-07-14T02:45:28.631Z,50.30
2018-07-14T03:05:38.263Z,50.50
2018-07-14T03:15:42.955Z,50.50
2018-07-14T03:25:49.173Z,50.50
2018-07-14T03:35:54.361Z,50.60
2018-07-14T03:45:59.157Z,50.60
2018-07-14T04:06:08.396Z,50.50
2018-07-14T04:16:13.073Z,50.50
2018-07-14T04:26:18.742Z,50.50
2018-07-14T04:36:23.459Z,50.50
2018-07-14T04:56:32.512Z,51.20
2018-07-14T05:06:37.214Z,50.60
2018-07-14T05:16:42.162Z,50.60
2018-07-14T05:26:46.954Z,50.70
2018-07-14T05:46:56.034Z,50.80
2018-07-14T05:57:03.208Z,50.70
2018-07-14T06:07:08.080Z,50.90
2018-07-14T06:17:12.966Z,51.10
2018-07-14T06:27:18.418Z,51.10
2018-07-14T06:37:23.651Z,51.20
2018-07-14T06:47:28.818Z,51.60
2018-07-14T06:57:34.375Z,51.50
2018-07-14T07:17:44.736Z,51.90
2018-07-14T07:27:50.246Z,51.90
2018-07-14T07:37:55.045Z,51.90
2018-07-14T07:58:06.243Z,52.20
2018-07-14T08:08:11.005Z,53.00
2018-07-14T08:18:16.656Z,52.40
2018-07-14T08:28:21.382Z,52.20
2018-07-14T08:38:26.390Z,52.30
2018-07-14T08:48:31.123Z,52.40
2018-07-14T08:58:36.653Z,52.40
2018-07-14T09:08:42.184Z,52.20
2018-07-14T09:18:48.171Z,52.00
2018-07-14T09:28:53.956Z,53.20
2018-07-14T09:49:07.679Z,52.90
2018-07-14T09:59:14.101Z,54.30
2018-07-14T10:09:18.803Z,55.30
2018-07-14T10:19:24.507Z,54.80
2018-07-14T10:29:31.772Z,55.30
2018-07-14T10:39:36.931Z,55.20
2018-07-14T10:49:41.784Z,55.60
2018-07-14T10:59:46.536Z,55.30
2018-07-14T11:09:51.603Z,54.80
2018-07-14T11:19:56.257Z,55.50
2018-07-14T11:30:01.322Z,55.10
2018-07-14T11:40:06.955Z,54.80
2018-07-14T11:50:11.903Z,54.70
2018-07-14T12:00:16.556Z,54.60
2018-07-14T12:10:21.092Z,54.40
2018-07-14T12:20:25.853Z,54.20
2018-07-14T12:30:30.855Z,54.30
2018-07-14T12:40:35.720Z,54.30
2018-07-14T12:50:41.298Z,54.20
2018-07-14T13:00:46.516Z,54.40
2018-07-14T13:20:55.670Z,54.50
2018-07-14T13:31:00.296Z,54.20
2018-07-14T13:41:04.848Z,54.20
2018-07-14T13:51:09.693Z,54.20
2018-07-14T14:01:14.395Z,54.10
2018-07-14T14:11:19.313Z,54.10
2018-07-14T14:21:24.010Z,54.10
2018-07-14T14:31:28.932Z,54.50
2018-07-14T14:41:33.599Z,54.10
2018-07-14T14:51:38.366Z,54.70
2018-07-14T15:01:43.050Z,54.00
2018-07-14T15:11:48.601Z,54.00
2018-07-14T15:21:53.243Z,54.00
2018-07-14T15:42:03.017Z,53.80
2018-07-14T15:52:08.344Z,53.80
2018-07-14T16:02:13.184Z,53.80
2018-07-14T16:12:17.960Z,53.60
2018-07-14T16:22:22.633Z,53.50
2018-07-14T16:32:27.339Z,53.70
2018-07-14T16:42:32.000Z,53.70
2018-07-14T16:52:36.806Z,53.70
2018-07-14T17:02:42.652Z,53.70
2018-07-14T17:12:47.332Z,53.70
2018-07-14T17:22:51.931Z,53.60
2018-07-14T17:32:56.696Z,53.60
2018-07-14T17:43:01.371Z,53.80
2018-07-14T17:53:06.052Z,53.70
2018-07-14T18:03:10.763Z,53.70
2018-07-14T18:13:15.504Z,53.70
2018-07-14T18:23:20.183Z,53.60
2018-07-14T18:33:24.983Z,53.70
2018-07-14T18:53:34.093Z,53.60
2018-07-14T19:03:39.302Z,53.60
2018-07-14T19:13:44.082Z,53.60
2018-07-14T19:23:49.176Z,53.60
2018-07-14T19:33:53.848Z,53.60
2018-07-14T19:43:58.424Z,53.60
2018-07-14T19:54:03.115Z,53.50
2018-07-14T20:04:07.764Z,53.50
2018-07-14T20:14:12.402Z,54.10
2018-07-14T20:24:16.990Z,53.50
2018-07-14T20:34:21.675Z,53.50
2018-07-14T20:44:26.480Z,53.50
2018-07-14T20:54:31.163Z,53.50
2018-07-14T21:04:35.815Z,53.60
2018-07-14T21:14:40.533Z,53.60
2018-07-14T21:24:45.179Z,53.50
2018-07-14T21:34:51.006Z,53.50
2018-07-14T21:44:55.670Z,53.60
2018-07-14T21:55:00.311Z,53.70
2018-07-14T22:05:05.130Z,53.50
2018-07-14T22:15:09.743Z,53.70
2018-07-14T22:25:14.392Z,53.70
2018-07-14T22:35:19.166Z,53.50
2018-07-14T22:45:23.956Z,53.60
2018-07-14T22:55:28.644Z,53.60
2018-07-14T23:05:33.532Z,53.50
2018-07-14T23:15:38.498Z,53.50
2018-07-14T23:25:43.521Z,53.60
2018-07-14T23:35:48.258Z,53.70
2018-07-14T23:45:53.037Z,53.60
